Time;durP1;ratioP1;P1;durP2;ratioP2;P2;SDS_P1;SDS_P2;PMS_P1;PMS_P2;Temp;Humidity;BMP_temperature;BMP_pressure;BME280_temperature;BME280_humidity;BME280_pressure;Samples;Min_cycle;Max_cycle;Signal;HPM_P1;HPM_P2
2021/06/28 00:00:52;;;;;;;2.80;2.60;;;;;24.60;100334.00;;;;2060190;28;20212;-74
2021/06/28 00:01:52;;;;;;;2.80;2.60;;;;;24.60;100333.00;;;;2058785;28;20649;-74
2021/06/28 00:02:52;;;;;;;2.97;2.77;;;;;24.60;100325.00;;;;2065293;28;20237;-74
2021/06/28 00:03:53;;;;;;;3.03;2.83;;;;;24.60;100339.00;;;;2058878;28;20288;-73
2021/06/28 00:04:54;;;;;;;2.80;2.60;;;;;24.60;100324.00;;;;2058334;28;20211;-74
2021/06/28 00:05:54;;;;;;;2.97;2.67;;;;;24.60;100325.00;;;;2059860;28;20263;-74
2021/06/28 00:06:54;;;;;;;3.20;2.70;;;;;24.60;100330.00;;;;2064777;28;20302;-74
2021/06/28 00:07:55;;;;;;;3.00;2.80;;;;;24.60;100326.00;;;;2062976;28;20581;-74
2021/06/28 00:08:56;;;;;;;3.03;2.83;;;;;24.60;100321.00;;;;2058863;28;20246;-74
2021/06/28 00:09:56;;;;;;;2.85;2.65;;;;;24.60;100326.00;;;;2058775;28;20215;-74
2021/06/28 00:10:57;;;;;;;3.40;3.10;;;;;24.60;100323.00;;;;2059031;28;20212;-74
2021/06/28 00:11:57;;;;;;;2.47;2.37;;;;;24.60;100321.00;;;;2059166;28;20718;-74
2021/06/28 00:12:58;;;;;;;2.77;2.57;;;;;24.60;100320.00;;;;2059310;28;20710;-74
2021/06/28 00:13:59;;;;;;;2.70;2.50;;;;;24.60;100314.00;;;;2059182;28;20222;-74
2021/06/28 00:14:59;;;;;;;3.23;3.03;;;;;24.60;100315.00;;;;2058644;28;20628;-74
2021/06/28 00:15:59;;;;;;;2.50;2.30;;;;;24.60;100311.00;;;;2058397;28;20215;-74
2021/06/28 00:17:00;;;;;;;2.80;2.60;;;;;24.60;100313.00;;;;2058578;28;20257;-72
2021/06/28 00:18:00;;;;;;;2.90;2.70;;;;;24.60;100308.00;;;;2056867;28;20396;-72
2021/06/28 00:19:02;;;;;;;2.70;2.50;;;;;24.60;100322.00;;;;2057852;28;20335;-73
2021/06/28 00:20:04;;;;;;;3.08;2.78;;;;;24.60;100318.00;;;;2053702;28;20217;-73
2021/06/28 00:21:05;;;;;;;2.80;2.60;;;;;24.60;100322.00;;;;2058756;28;20649;-73
2021/06/28 00:22:05;;;;;;;3.17;2.77;;;;;24.60;100316.00;;;;2058349;28;20227;-74
2021/06/28 00:23:06;;;;;;;2.50;2.40;;;;;24.60;100324.00;;;;2060648;28;20337;-73
2021/06/28 00:24:06;;;;;;;3.20;3.00;;;;;24.60;100314.00;;;;2059436;28;20210;-73
2021/06/28 00:25:09;;;;;;;3.60;3.30;;;;;24.60;100316.00;;;;2059472;28;20214;-73
2021/06/28 00:26:09;;;;;;;3.00;2.80;;;;;24.60;100307.00;;;;2059735;28;20352;-74
2021/06/28 00:27:10;;;;;;;2.87;2.67;;;;;24.60;100308.00;;;;2060484;28;20227;-74
2021/06/28 00:28:10;;;;;;;2.97;2.77;;;;;24.60;100303.00;;;;2060954;28;20239;-74
2021/06/28 00:29:11;;;;;;;2.70;2.50;;;;;24.60;100302.00;;;;2060269;28;20242;-74
2021/06/28 00:30:13;;;;;;;3.10;2.87;;;;;24.60;100296.00;;;;2052169;28;20748;-74
2021/06/28 00:31:13;;;;;;;2.65;2.40;;;;;24.60;100308.00;;;;2059913;28;20203;-74
2021/06/28 00:32:14;;;;;;;2.80;2.60;;;;;24.60;100299.00;;;;2059122;28;20218;-73
2021/06/28 00:33:17;;;;;;;3.17;2.97;;;;;24.60;100304.00;;;;2051278;28;20254;-74
2021/06/28 00:34:17;;;;;;;2.85;2.65;;;;;24.60;100307.00;;;;2052105;28;20310;-74
2021/06/28 00:35:21;;;;;;;3.00;2.80;;;;;24.60;100304.00;;;;2063164;28;20214;-73
2021/06/28 00:36:21;;;;;;;2.88;2.67;;;;;24.60;100310.00;;;;2063470;28;20233;-74
2021/06/28 00:37:22;;;;;;;3.20;3.00;;;;;24.60;100303.00;;;;2062041;28;20289;-74
2021/06/28 00:38:22;;;;;;;3.63;3.30;;;;;24.60;100311.00;;;;2060798;28;20207;-74
2021/06/28 00:39:22;;;;;;;3.33;3.07;;;;;24.60;100300.00;;;;2058971;28;20306;-74
2021/06/28 00:40:23;;;;;;;3.00;2.80;;;;;24.60;100293.00;;;;2051103;28;20223;-74
2021/06/28 00:41:23;;;;;;;3.70;2.90;;;;;24.60;100302.00;;;;2059250;28;20282;-74
2021/06/28 00:42:25;;;;;;;2.90;2.70;;;;;24.60;100293.00;;;;2059832;28;20656;-74
2021/06/28 00:43:25;;;;;;;2.95;2.75;;;;;24.60;100296.00;;;;2059674;28;20250;-74
2021/06/28 00:44:25;;;;;;;2.70;2.50;;;;;24.60;100292.00;;;;2060078;28;20263;-74
2021/06/28 00:45:30;;;;;;;3.17;2.90;;;;;24.60;100294.00;;;;2060606;28;20343;-73
2021/06/28 00:46:31;;;;;;;3.03;2.83;;;;;24.60;100291.00;;;;2060671;28;20257;-74
2021/06/28 00:47:31;;;;;;;2.73;2.53;;;;;24.60;100291.00;;;;2059987;28;20621;-74
2021/06/28 00:48:31;;;;;;;3.27;3.00;;;;;24.60;100291.00;;;;2059996;28;20234;-74
2021/06/28 00:49:32;;;;;;;3.03;2.83;;;;;24.60;100293.00;;;;2058056;28;20215;-74
2021/06/28 00:50:34;;;;;;;2.93;2.73;;;;;24.60;100284.00;;;;2059796;28;20238;-74
2021/06/28 00:51:35;;;;;;;2.90;2.70;;;;;24.60;100288.00;;;;2058703;28;20210;-71
2021/06/28 00:52:35;;;;;;;3.10;2.90;;;;;24.60;100305.00;;;;2052668;28;20303;-72
2021/06/28 00:53:35;;;;;;;2.80;2.60;;;;;24.60;100293.00;;;;2056862;28;21124;-73
2021/06/28 00:54:36;;;;;;;2.90;2.70;;;;;24.60;100293.00;;;;2063355;28;20211;-73
2021/06/28 00:55:37;;;;;;;3.03;2.60;;;;;24.60;100288.00;;;;2061120;28;20225;-74
2021/06/28 00:56:38;;;;;;;4.10;3.80;;;;;24.60;100287.00;;;;2051351;28;20227;-73
2021/06/28 00:57:38;;;;;;;3.30;2.70;;;;;24.60;100291.00;;;;2043196;28;20974;-73
2021/06/28 00:58:39;;;;;;;3.50;3.20;;;;;24.60;100291.00;;;;2051265;28;20683;-74
2021/06/28 00:59:39;;;;;;;3.07;2.87;;;;;24.60;100286.00;;;;2062550;28;20207;-73
2021/06/28 01:00:40;;;;;;;3.07;2.77;;;;;24.60;100287.00;;;;2060209;28;20466;-74
2021/06/28 01:01:40;;;;;;;2.90;2.70;;;;;24.60;100287.00;;;;2048719;28;20223;-73
2021/06/28 01:02:41;;;;;;;3.20;3.00;;;;;24.60;100288.00;;;;2057340;28;20278;-74
2021/06/28 01:03:41;;;;;;;2.90;2.70;;;;;24.60;100290.00;;;;2051393;28;20354;-74
2021/06/28 01:04:41;;;;;;;3.47;3.17;;;;;24.60;100289.00;;;;2042773;28;20217;-74
2021/06/28 01:05:42;;;;;;;3.03;2.83;;;;;24.60;100300.00;;;;2058475;28;20219;-74
2021/06/28 01:06:42;;;;;;;3.37;3.07;;;;;24.60;100284.00;;;;2059318;28;20274;-74
2021/06/28 01:07:43;;;;;;;3.13;2.83;;;;;24.60;100286.00;;;;2058992;28;20227;-73
2021/06/28 01:08:43;;;;;;;3.20;3.00;;;;;24.60;100282.00;;;;2059513;28;20223;-74
2021/06/28 01:09:43;;;;;;;2.97;2.77;;;;;24.60;100288.00;;;;2051165;28;20244;-74
2021/06/28 01:10:43;;;;;;;4.17;2.90;;;;;24.60;100289.00;;;;2059843;28;20721;-73
2021/06/28 01:11:44;;;;;;;2.77;2.57;;;;;24.60;100285.00;;;;2060506;28;20697;-74
2021/06/28 01:12:45;;;;;;;3.13;2.93;;;;;24.60;100288.00;;;;2060048;28;20216;-74
2021/06/28 01:13:45;;;;;;;2.55;2.35;;;;;24.60;100279.00;;;;2058868;28;20219;-74
2021/06/28 01:14:46;;;;;;;2.80;2.60;;;;;24.60;100285.00;;;;2050788;28;20226;-74
2021/06/28 01:15:47;;;;;;;3.10;2.80;;;;;24.60;100293.00;;;;2050641;28;20244;-74
2021/06/28 01:16:47;;;;;;;3.40;3.20;;;;;24.60;100277.00;;;;2051175;28;20285;-74
2021/06/28 01:17:47;;;;;;;3.10;2.90;;;;;24.60;100283.00;;;;2051877;28;20490;-74
2021/06/28 01:18:48;;;;;;;2.87;2.67;;;;;24.60;100283.00;;;;2051894;28;20220;-73
2021/06/28 01:20:00;;;;;;;3.20;3.00;;;;;24.60;100285.00;;;;2051733;28;20318;-74
2021/06/28 01:21:00;;;;;;;3.33;3.03;;;;;24.60;100282.00;;;;2055163;28;20281;-74
2021/06/28 01:22:01;;;;;;;3.10;2.90;;;;;24.60;100285.00;;;;2051601;28;20665;-74
2021/06/28 01:23:20;;;;;;;3.87;3.57;;;;;24.60;100282.00;;;;2042384;28;20272;-74
2021/06/28 01:24:21;;;;;;;3.30;3.10;;;;;24.60;100279.00;;;;2053186;28;20211;-74
2021/06/28 01:25:23;;;;;;;3.00;2.80;;;;;24.60;100279.00;;;;2050934;28;20310;-74
2021/06/28 01:26:23;;;;;;;3.00;2.80;;;;;24.60;100278.00;;;;2051590;28;20213;-74
2021/06/28 01:27:26;;;;;;;3.13;2.90;;;;;24.60;100276.00;;;;2059353;28;20231;-74
2021/06/28 01:28:27;;;;;;;3.05;2.78;;;;;24.60;100271.00;;;;2051587;28;20597;-74
2021/06/28 01:29:27;;;;;;;3.03;2.80;;;;;24.60;100275.00;;;;2050222;28;20255;-74
2021/06/28 01:30:29;;;;;;;3.40;3.20;;;;;24.60;100270.00;;;;2060978;28;20214;-74
2021/06/28 01:31:29;;;;;;;3.60;3.30;;;;;24.60;100272.00;;;;2062169;28;20219;-74
2021/06/28 01:32:30;;;;;;;3.00;2.80;;;;;24.60;100274.00;;;;2052282;28;20295;-74
2021/06/28 01:33:30;;;;;;;3.00;2.80;;;;;24.60;100281.00;;;;2050210;28;20208;-74
2021/06/28 01:34:30;;;;;;;2.97;2.77;;;;;24.60;100273.00;;;;2058442;28;20211;-74
2021/06/28 01:35:31;;;;;;;3.07;2.87;;;;;24.60;100276.00;;;;2059209;28;20298;-74
2021/06/28 01:36:31;;;;;;;3.17;2.97;;;;;24.60;100278.00;;;;2059545;28;20218;-74
2021/06/28 01:37:31;;;;;;;3.47;3.17;;;;;24.60;100274.00;;;;2060048;28;20223;-74
2021/06/28 01:38:32;;;;;;;3.10;2.90;;;;;24.60;100281.00;;;;2060371;28;20246;-74
2021/06/28 01:39:32;;;;;;;3.23;3.03;;;;;24.60;100277.00;;;;2058973;28;24811;-73
2021/06/28 01:40:33;;;;;;;2.80;2.60;;;;;24.50;100279.00;;;;2050962;28;20330;-74
2021/06/28 01:41:33;;;;;;;3.70;3.40;;;;;24.60;100278.00;;;;2050786;28;20226;-74
2021/06/28 01:42:35;;;;;;;2.97;2.77;;;;;24.60;100281.00;;;;2050391;28;20364;-74
2021/06/28 01:43:36;;;;;;;3.33;3.13;;;;;24.60;100271.00;;;;2059814;28;20901;-74
2021/06/28 01:44:36;;;;;;;3.17;2.97;;;;;24.60;100269.00;;;;2063945;28;20230;-74
2021/06/28 01:45:37;;;;;;;3.47;3.17;;;;;24.60;100279.00;;;;2063734;28;20222;-74
2021/06/28 01:46:37;;;;;;;2.67;2.47;;;;;24.60;100267.00;;;;2062910;28;20674;-74
2021/06/28 01:47:38;;;;;;;2.80;2.60;;;;;24.60;100266.00;;;;2058068;28;20956;-73
2021/06/28 01:48:39;;;;;;;2.90;2.70;;;;;24.60;100262.00;;;;2058805;28;20220;-74
2021/06/28 01:49:39;;;;;;;2.60;2.40;;;;;24.60;100269.00;;;;2059132;28;20470;-74
2021/06/28 01:50:40;;;;;;;2.50;2.40;;;;;24.60;100263.00;;;;2051002;28;20255;-74
2021/06/28 01:51:40;;;;;;;3.37;3.07;;;;;24.60;100254.00;;;;2051527;28;20286;-74
2021/06/28 01:52:41;;;;;;;2.80;2.60;;;;;24.50;100255.00;;;;2060217;28;20252;-74
2021/06/28 01:53:41;;;;;;;3.07;2.87;;;;;24.60;100256.00;;;;2051564;28;20242;-73
2021/06/28 01:54:42;;;;;;;3.33;3.03;;;;;24.60;100259.00;;;;2050697;28;20645;-74
2021/06/28 01:55:42;;;;;;;3.00;2.80;;;;;24.60;100267.00;;;;2058581;28;20219;-74
2021/06/28 01:56:43;;;;;;;3.63;3.20;;;;;24.60;100274.00;;;;2050757;28;20227;-74
2021/06/28 01:57:47;;;;;;;3.40;3.20;;;;;24.60;100274.00;;;;2049597;28;20688;-74
2021/06/28 01:58:48;;;;;;;3.20;2.90;;;;;24.60;100279.00;;;;2058295;28;20645;-73
2021/06/28 01:59:48;;;;;;;3.53;2.33;;;;;24.60;100283.00;;;;2059075;28;20215;-73
2021/06/28 02:00:52;;;;;;;3.07;2.87;;;;;24.60;100283.00;;;;2062806;28;20223;-73
2021/06/28 02:01:52;;;;;;;2.97;2.78;;;;;24.50;100282.00;;;;2062927;28;20230;-73
2021/06/28 02:03:06;;;;;;;3.00;2.80;;;;;24.60;100284.00;;;;2060092;28;20562;-74
2021/06/28 02:04:06;;;;;;;2.60;2.40;;;;;24.60;100277.00;;;;2059650;28;23236;-74
2021/06/28 02:05:07;;;;;;;2.63;2.43;;;;;24.60;100276.00;;;;2059349;28;20226;-74
2021/06/28 02:06:07;;;;;;;3.00;2.80;;;;;24.60;100277.00;;;;2066715;28;20218;-74
2021/06/28 02:07:08;;;;;;;3.87;3.57;;;;;24.60;100281.00;;;;2066687;28;20470;-73
2021/06/28 02:08:09;;;;;;;3.10;2.90;;;;;24.60;100276.00;;;;2058043;28;20266;-74
2021/06/28 02:09:09;;;;;;;3.22;3.03;;;;;24.60;100279.00;;;;2060134;28;20647;-74
2021/06/28 02:10:09;;;;;;;3.30;3.10;;;;;24.60;100280.00;;;;2060041;28;20227;-74
2021/06/28 02:11:10;;;;;;;2.90;2.70;;;;;24.50;100284.00;;;;2060049;28;20226;-74
2021/06/28 02:12:10;;;;;;;2.93;2.73;;;;;24.60;100283.00;;;;2060105;28;20226;-74
2021/06/28 02:13:10;;;;;;;3.00;2.80;;;;;24.50;100283.00;;;;2058628;28;20295;-74
2021/06/28 02:14:11;;;;;;;3.13;2.93;;;;;24.60;100286.00;;;;2051239;28;20618;-74
2021/06/28 02:15:21;;;;;;;2.90;2.70;;;;;24.60;100288.00;;;;2065494;28;20720;-74
2021/06/28 02:16:22;;;;;;;3.03;2.85;;;;;24.60;100282.00;;;;2060537;28;20214;-73
2021/06/28 02:17:22;;;;;;;2.97;2.67;;;;;24.50;100282.00;;;;2058570;28;20215;-74
2021/06/28 02:18:25;;;;;;;3.07;2.87;;;;;24.50;100284.00;;;;2058524;28;20246;-73
2021/06/28 02:19:25;;;;;;;3.20;3.00;;;;;24.50;100280.00;;;;2058579;28;20211;-74
2021/06/28 02:20:26;;;;;;;2.97;2.77;;;;;24.50;100290.00;;;;2058018;28;20253;-74
2021/06/28 02:21:26;;;;;;;3.27;3.07;;;;;24.50;100284.00;;;;2057655;28;20697;-74
2021/06/28 02:22:26;;;;;;;3.00;2.80;;;;;24.50;100279.00;;;;2045491;28;20220;-73
2021/06/28 02:23:31;;;;;;;2.80;2.60;;;;;24.50;100283.00;;;;2051506;28;20371;-74
2021/06/28 02:24:31;;;;;;;3.03;2.83;;;;;24.60;100282.00;;;;2062811;28;20198;-74
2021/06/28 02:25:32;;;;;;;3.00;2.80;;;;;24.50;100281.00;;;;2059329;28;20224;-74
2021/06/28 02:26:32;;;;;;;2.90;2.70;;;;;24.50;100286.00;;;;2067340;28;20214;-74
2021/06/28 02:27:32;;;;;;;3.20;3.00;;;;;24.50;100273.00;;;;2058937;28;20708;-74
2021/06/28 02:28:35;;;;;;;2.90;2.70;;;;;24.50;100273.00;;;;2050472;28;20824;-74
2021/06/28 02:29:35;;;;;;;3.13;2.92;;;;;24.50;100274.00;;;;2058474;28;20215;-74
2021/06/28 02:30:35;;;;;;;3.07;2.87;;;;;24.50;100265.00;;;;2058926;28;20235;-73
2021/06/28 02:31:36;;;;;;;3.27;3.07;;;;;24.50;100255.00;;;;2050587;28;20208;-74
2021/06/28 02:32:36;;;;;;;3.30;3.10;;;;;24.60;100268.00;;;;2043035;28;20213;-74
2021/06/28 02:33:38;;;;;;;3.00;2.80;;;;;24.50;100272.00;;;;2059118;28;20444;-74
2021/06/28 02:34:38;;;;;;;3.17;2.90;;;;;24.50;100270.00;;;;2056443;28;20218;-74
2021/06/28 02:35:39;;;;;;;3.57;3.27;;;;;24.60;100275.00;;;;2058515;28;20634;-74
2021/06/28 02:36:39;;;;;;;3.30;3.10;;;;;24.60;100268.00;;;;2058591;28;20710;-74
2021/06/28 02:37:40;;;;;;;3.20;3.00;;;;;24.50;100267.00;;;;2057831;28;20226;-74
2021/06/28 02:38:41;;;;;;;2.80;2.60;;;;;24.50;100270.00;;;;2058185;28;20737;-74
2021/06/28 02:39:41;;;;;;;3.60;3.30;;;;;24.50;100261.00;;;;2055109;28;20219;-74
2021/06/28 02:40:41;;;;;;;3.50;3.20;;;;;24.50;100261.00;;;;2057672;28;20219;-74
2021/06/28 02:41:42;;;;;;;2.80;2.60;;;;;24.50;100262.00;;;;2058485;28;20652;-74
2021/06/28 02:42:42;;;;;;;3.30;3.00;;;;;24.50;100270.00;;;;2058754;28;20229;-74
2021/06/28 02:43:43;;;;;;;3.50;3.30;;;;;24.50;100263.00;;;;2058666;28;20579;-74
2021/06/28 02:44:43;;;;;;;3.37;3.17;;;;;24.60;100258.00;;;;2057071;28;20219;-74
2021/06/28 02:45:44;;;;;;;3.00;2.70;;;;;24.50;100261.00;;;;2058675;28;20227;-74
2021/06/28 02:46:44;;;;;;;3.33;3.13;;;;;24.50;100261.00;;;;2058826;28;20299;-74
2021/06/28 02:47:44;;;;;;;2.90;2.70;;;;;24.50;100261.00;;;;2058489;28;20257;-74
2021/06/28 02:48:45;;;;;;;3.60;3.30;;;;;24.50;100262.00;;;;2058729;28;20224;-74
2021/06/28 02:49:45;;;;;;;3.67;3.37;;;;;24.50;100267.00;;;;2058338;28;20215;-74
2021/06/28 02:50:45;;;;;;;3.07;2.87;;;;;24.50;100265.00;;;;2058318;28;20242;-74
2021/06/28 02:51:46;;;;;;;3.73;3.43;;;;;24.50;100269.00;;;;2058930;28;20226;-74
2021/06/28 02:52:46;;;;;;;2.93;2.73;;;;;24.50;100267.00;;;;2064304;28;20219;-74
2021/06/28 02:53:46;;;;;;;3.10;2.90;;;;;24.50;100261.00;;;;2062254;28;20214;-74
2021/06/28 02:54:47;;;;;;;3.10;2.90;;;;;24.50;100271.00;;;;2060236;28;20211;-74
2021/06/28 02:55:48;;;;;;;3.30;3.10;;;;;24.50;100270.00;;;;2058009;28;20210;-74
2021/06/28 02:56:49;;;;;;;3.50;3.30;;;;;24.50;100270.00;;;;2059019;28;20269;-74
2021/06/28 02:57:49;;;;;;;3.20;3.00;;;;;24.50;100274.00;;;;2059665;28;20223;-74
2021/06/28 02:58:51;;;;;;;3.63;3.33;;;;;24.50;100272.00;;;;2059812;28;20243;-74
2021/06/28 02:59:51;;;;;;;3.70;3.40;;;;;24.50;100272.00;;;;2058609;28;20287;-74
2021/06/28 03:00:52;;;;;;;3.27;3.07;;;;;24.50;100274.00;;;;2059546;28;20211;-73
2021/06/28 03:01:52;;;;;;;2.93;2.73;;;;;24.50;100272.00;;;;2058890;28;20246;-74
2021/06/28 03:02:52;;;;;;;3.30;3.10;;;;;24.50;100280.00;;;;2059050;28;20277;-74
2021/06/28 03:03:53;;;;;;;4.43;2.77;;;;;24.50;100281.00;;;;2059126;28;20217;-74
2021/06/28 03:04:53;;;;;;;3.53;3.23;;;;;24.50;100277.00;;;;2058135;28;20649;-74
2021/06/28 03:05:53;;;;;;;2.90;2.70;;;;;24.50;100280.00;;;;2058715;28;20234;-74
2021/06/28 03:06:54;;;;;;;3.30;3.10;;;;;24.50;100276.00;;;;2059688;28;20306;-74
2021/06/28 03:07:54;;;;;;;2.70;2.50;;;;;24.50;100277.00;;;;2059844;28;20589;-74
2021/06/28 03:08:55;;;;;;;3.17;2.97;;;;;24.50;100278.00;;;;2059773;28;20214;-74
2021/06/28 03:09:55;;;;;;;2.57;2.43;;;;;24.50;100273.00;;;;2058400;28;20214;-74
2021/06/28 03:10:55;;;;;;;3.13;2.93;;;;;24.50;100280.00;;;;2050144;28;21024;-74
2021/06/28 03:11:56;;;;;;;3.00;2.80;;;;;24.50;100279.00;;;;2050191;28;20653;-74
2021/06/28 03:12:56;;;;;;;3.40;3.20;;;;;24.50;100272.00;;;;2058226;28;20238;-74
2021/06/28 03:13:57;;;;;;;3.70;3.40;;;;;24.50;100282.00;;;;2066268;28;20217;-74
2021/06/28 03:14:57;;;;;;;3.50;3.30;;;;;24.50;100275.00;;;;2066245;28;20210;-73
2021/06/28 03:15:57;;;;;;;3.27;3.07;;;;;24.50;100281.00;;;;2058687;28;20223;-73
2021/06/28 03:16:58;;;;;;;3.03;2.60;;;;;24.50;100279.00;;;;2058310;28;20210;-73
2021/06/28 03:17:58;;;;;;;2.90;2.70;;;;;24.50;100271.00;;;;2058274;28;20254;-73
2021/06/28 03:18:58;;;;;;;3.10;2.90;;;;;24.50;100271.00;;;;2059231;28;20208;-73
2021/06/28 03:19:59;;;;;;;3.03;2.83;;;;;24.50;100275.00;;;;2058947;28;20726;-74
2021/06/28 03:21:00;;;;;;;2.90;2.70;;;;;24.50;100273.00;;;;2050861;28;20208;-73
2021/06/28 03:22:00;;;;;;;2.85;2.65;;;;;24.50;100274.00;;;;2051009;28;20298;-73
2021/06/28 03:23:00;;;;;;;3.33;3.13;;;;;24.50;100271.00;;;;2059534;28;20204;-73
2021/06/28 03:24:01;;;;;;;3.50;3.30;;;;;24.50;100270.00;;;;2066164;28;20300;-74
2021/06/28 03:25:01;;;;;;;3.37;2.87;;;;;24.50;100266.00;;;;2064087;28;20293;-73
2021/06/28 03:26:02;;;;;;;3.20;3.00;;;;;24.50;100273.00;;;;2062775;28;20540;-74
2021/06/28 03:27:03;;;;;;;3.43;3.20;;;;;24.50;100267.00;;;;2063302;28;20230;-73
2021/06/28 03:28:03;;;;;;;3.20;3.00;;;;;24.50;100268.00;;;;2062690;28;20651;-74
2021/06/28 03:29:04;;;;;;;3.47;3.20;;;;;24.50;100270.00;;;;2058388;28;20289;-74
2021/06/28 03:30:05;;;;;;;3.50;3.30;;;;;24.50;100271.00;;;;2059055;28;20235;-73
2021/06/28 03:31:06;;;;;;;3.25;3.00;;;;;24.40;100273.00;;;;2058693;28;20756;-73
2021/06/28 03:32:07;;;;;;;3.10;2.90;;;;;24.50;100265.00;;;;2049869;28;20211;-74
2021/06/28 03:33:07;;;;;;;3.10;2.90;;;;;24.50;100269.00;;;;2058037;28;20231;-74
2021/06/28 03:34:07;;;;;;;2.97;2.77;;;;;24.50;100270.00;;;;2058906;28;20226;-73
2021/06/28 03:35:08;;;;;;;3.10;2.90;;;;;24.50;100270.00;;;;2057424;28;20702;-73
2021/06/28 03:36:09;;;;;;;3.30;3.03;;;;;24.50;100267.00;;;;2058812;28;20721;-74
2021/06/28 03:37:09;;;;;;;3.03;2.83;;;;;24.50;100269.00;;;;2060253;28;20555;-74
2021/06/28 03:38:09;;;;;;;3.57;3.00;;;;;24.50;100267.00;;;;2065389;28;20207;-73
2021/06/28 03:39:10;;;;;;;3.00;2.80;;;;;24.50;100278.00;;;;2061191;28;20215;-73
2021/06/28 03:40:11;;;;;;;2.80;2.60;;;;;24.50;100274.00;;;;2059305;28;20698;-74
2021/06/28 03:41:11;;;;;;;3.63;3.33;;;;;24.50;100277.00;;;;2066949;28;20207;-74
2021/06/28 03:42:12;;;;;;;3.50;3.20;;;;;24.50;100286.00;;;;2067033;28;20729;-73
2021/06/28 03:43:12;;;;;;;3.67;3.40;;;;;24.50;100277.00;;;;2050804;28;20216;-74
2021/06/28 03:44:12;;;;;;;3.10;2.90;;;;;24.50;100285.00;;;;2050486;28;20695;-73
2021/06/28 03:45:13;;;;;;;2.87;2.67;;;;;24.50;100285.00;;;;2057975;28;20281;-74
2021/06/28 03:46:13;;;;;;;3.10;2.90;;;;;24.50;100279.00;;;;2050168;28;20207;-74
2021/06/28 03:47:14;;;;;;;3.20;3.00;;;;;24.50;100279.00;;;;2058178;28;20344;-74
2021/06/28 03:48:14;;;;;;;3.03;2.83;;;;;24.50;100282.00;;;;2058972;28;20265;-73
2021/06/28 03:49:14;;;;;;;2.80;2.60;;;;;24.50;100282.00;;;;2050934;28;20213;-73
2021/06/28 03:50:15;;;;;;;2.83;2.63;;;;;24.50;100278.00;;;;2050754;28;20209;-74
2021/06/28 03:51:15;;;;;;;2.93;2.73;;;;;24.50;100280.00;;;;2059415;28;20590;-73
2021/06/28 03:52:15;;;;;;;3.50;3.23;;;;;24.50;100281.00;;;;2059281;28;20214;-73
2021/06/28 03:53:16;;;;;;;3.00;2.80;;;;;24.50;100282.00;;;;2059076;28;20222;-74
2021/06/28 03:54:16;;;;;;;3.10;2.90;;;;;24.50;100281.00;;;;2058854;28;20297;-74
2021/06/28 03:55:16;;;;;;;2.93;2.73;;;;;24.50;100287.00;;;;2058667;28;20689;-73
2021/06/28 03:56:17;;;;;;;3.10;2.70;;;;;24.50;100278.00;;;;2057882;28;20741;-74
2021/06/28 03:57:17;;;;;;;3.30;3.10;;;;;24.50;100280.00;;;;2059936;28;20215;-74
2021/06/28 03:58:17;;;;;;;3.37;3.17;;;;;24.50;100272.00;;;;2061080;28;20558;-74
2021/06/28 03:59:18;;;;;;;3.37;3.07;;;;;24.50;100285.00;;;;2060740;28;20219;-73
2021/06/28 04:00:22;;;;;;;3.00;2.80;;;;;24.50;100275.00;;;;2060898;28;20701;-74
2021/06/28 04:01:23;;;;;;;3.50;3.30;;;;;24.50;100273.00;;;;2060005;28;20588;-74
2021/06/28 04:02:23;;;;;;;3.20;3.00;;;;;24.50;100269.00;;;;2059411;28;20218;-74
2021/06/28 04:03:26;;;;;;;3.07;2.87;;;;;24.50;100269.00;;;;2059138;28;20214;-74
2021/06/28 04:04:28;;;;;;;2.95;2.75;;;;;24.50;100270.00;;;;2059078;28;20215;-74
2021/06/28 04:05:28;;;;;;;3.08;2.88;;;;;24.50;100275.00;;;;2059482;28;20670;-74
2021/06/28 04:06:29;;;;;;;3.30;3.10;;;;;24.50;100277.00;;;;2061857;28;20215;-74
2021/06/28 04:07:30;;;;;;;3.15;2.85;;;;;24.50;100275.00;;;;2062834;28;20207;-73
2021/06/28 04:08:34;;;;;;;3.63;3.43;;;;;24.50;100271.00;;;;2061988;28;20207;-74
2021/06/28 04:09:34;;;;;;;3.05;2.85;;;;;24.50;100277.00;;;;2064806;28;20258;-74
2021/06/28 04:10:34;;;;;;;2.50;2.40;;;;;24.50;100275.00;;;;2060886;28;20245;-74
2021/06/28 04:11:35;;;;;;;3.30;3.10;;;;;24.50;100274.00;;;;2060972;28;20214;-74
2021/06/28 04:12:35;;;;;;;3.20;3.00;;;;;24.50;100273.00;;;;2060904;28;20277;-74
2021/06/28 04:13:36;;;;;;;3.07;2.87;;;;;24.50;100273.00;;;;2059989;28;20464;-71
2021/06/28 04:14:37;;;;;;;3.10;2.90;;;;;24.50;100275.00;;;;2059312;28;21028;-72
2021/06/28 04:15:37;;;;;;;3.03;2.75;;;;;24.50;100269.00;;;;2059319;28;20222;-74
2021/06/28 04:16:38;;;;;;;3.60;3.40;;;;;24.50;100281.00;;;;2060066;28;20246;-73
2021/06/28 04:17:39;;;;;;;3.03;2.83;;;;;24.50;100285.00;;;;2060960;28;20245;-73
2021/06/28 04:18:39;;;;;;;2.88;2.67;;;;;24.50;100278.00;;;;2060961;28;20227;-73
2021/06/28 04:19:39;;;;;;;3.10;2.90;;;;;24.50;100271.00;;;;2060946;28;20222;-73
2021/06/28 04:20:40;;;;;;;2.87;2.67;;;;;24.50;100282.00;;;;2060682;28;20226;-73
2021/06/28 04:21:40;;;;;;;3.40;3.20;;;;;24.50;100279.00;;;;2060252;28;20306;-73
2021/06/28 04:22:40;;;;;;;3.57;3.27;;;;;24.50;100276.00;;;;2060142;28;20238;-73
2021/06/28 04:23:41;;;;;;;3.10;2.90;;;;;24.50;100278.00;;;;2060095;28;20222;-73
2021/06/28 04:24:41;;;;;;;3.00;2.80;;;;;24.50;100274.00;;;;2060127;28;20566;-73
2021/06/28 04:25:41;;;;;;;3.10;2.90;;;;;24.50;100278.00;;;;2059702;28;20231;-73
2021/06/28 04:26:42;;;;;;;2.97;2.77;;;;;24.50;100278.00;;;;2060196;28;20223;-73
2021/06/28 04:27:43;;;;;;;3.03;2.83;;;;;24.50;100283.00;;;;2060738;28;20250;-73
2021/06/28 04:28:43;;;;;;;3.13;2.93;;;;;24.50;100277.00;;;;2052105;28;20227;-72
2021/06/28 04:29:43;;;;;;;2.97;2.77;;;;;24.50;100278.00;;;;2052057;28;20219;-73
2021/06/28 04:30:44;;;;;;;3.57;3.30;;;;;24.50;100275.00;;;;2059909;28;20262;-74
2021/06/28 04:31:44;;;;;;;3.60;2.67;;;;;24.50;100271.00;;;;2060103;28;20257;-74
2021/06/28 04:32:45;;;;;;;2.97;2.77;;;;;24.50;100274.00;;;;2059088;28;20246;-73
2021/06/28 04:33:45;;;;;;;3.00;2.80;;;;;24.50;100279.00;;;;2060139;28;20224;-73
2021/06/28 04:34:46;;;;;;;3.10;2.90;;;;;24.50;100276.00;;;;2059171;28;20227;-73
2021/06/28 04:35:46;;;;;;;3.13;2.83;;;;;24.50;100275.00;;;;2060881;28;20278;-73
2021/06/28 04:36:47;;;;;;;3.33;3.10;;;;;24.50;100267.00;;;;2060686;28;21010;-73
2021/06/28 04:37:47;;;;;;;3.23;2.93;;;;;24.50;100266.00;;;;2066379;28;20775;-74
2021/06/28 04:38:47;;;;;;;3.33;3.13;;;;;24.50;100265.00;;;;2063954;28;20677;-74
2021/06/28 04:39:48;;;;;;;3.30;3.10;;;;;24.50;100266.00;;;;2062958;28;20967;-74
2021/06/28 04:40:48;;;;;;;2.67;2.53;;;;;24.50;100271.00;;;;2059793;28;20636;-73
2021/06/28 04:41:48;;;;;;;2.60;2.40;;;;;24.50;100268.00;;;;2059294;28;20615;-73
2021/06/28 04:42:49;;;;;;;2.87;2.67;;;;;24.50;100266.00;;;;2051517;28;20228;-73
2021/06/28 04:43:49;;;;;;;2.80;2.60;;;;;24.50;100262.00;;;;2060077;28;20219;-73
2021/06/28 04:44:50;;;;;;;3.10;2.90;;;;;24.50;100279.00;;;;2060916;28;20294;-74
2021/06/28 04:45:50;;;;;;;3.33;3.13;;;;;24.50;100274.00;;;;2060851;28;20215;-74
2021/06/28 04:46:50;;;;;;;2.77;2.57;;;;;24.50;100265.00;;;;2060124;28;20673;-74
2021/06/28 04:47:51;;;;;;;3.27;3.07;;;;;24.50;100274.00;;;;2059358;28;20230;-74
2021/06/28 04:48:51;;;;;;;2.80;2.60;;;;;24.50;100271.00;;;;2049943;28;20222;-73
2021/06/28 04:49:51;;;;;;;3.00;2.80;;;;;24.50;100266.00;;;;2055454;28;20215;-74
2021/06/28 04:50:52;;;;;;;2.90;2.70;;;;;24.50;100276.00;;;;2063498;28;20226;-74
2021/06/28 04:51:52;;;;;;;3.17;2.90;;;;;24.50;100273.00;;;;2063587;28;20258;-74
2021/06/28 04:52:53;;;;;;;2.60;2.40;;;;;24.50;100283.00;;;;2059048;28;20685;-74
2021/06/28 04:53:54;;;;;;;3.05;2.85;;;;;24.50;100279.00;;;;2059375;28;20215;-74
2021/06/28 04:54:54;;;;;;;3.07;2.87;;;;;24.50;100282.00;;;;2060830;28;20294;-74
2021/06/28 04:55:55;;;;;;;2.67;2.47;;;;;24.50;100280.00;;;;2066276;28;20714;-74
2021/06/28 04:56:55;;;;;;;3.10;2.90;;;;;24.50;100278.00;;;;2064827;28;20717;-74
2021/06/28 04:57:55;;;;;;;3.17;2.97;;;;;24.50;100285.00;;;;2063383;28;20226;-74
2021/06/28 04:58:56;;;;;;;3.00;2.80;;;;;24.50;100279.00;;;;2059826;28;20223;-73
2021/06/28 04:59:56;;;;;;;3.57;3.30;;;;;24.50;100277.00;;;;2059913;28;20637;-74
2021/06/28 05:00:56;;;;;;;3.00;2.80;;;;;24.50;100285.00;;;;2060440;28;20228;-74